Time;durP1;ratioP1;P1;durP2;ratioP2;P2;SDS_P1;SDS_P2;PMS_P1;PMS_P2;Temp;Humidity;BMP_temperature;BMP_pressure;BME280_temperature;BME280_humidity;BME280_pressure;Samples;Min_cycle;Max_cycle;Signal;HPM_P1;HPM_P2
2021/07/06 00:00:17;;;;;;;28.17;18.60;;;13.40;99.90;;;;;;5068173;28;20154;-60
2021/07/06 00:02:44;;;;;;;27.88;17.63;;;13.40;99.90;;;;;;5065819;28;20408;-60
2021/07/06 00:05:11;;;;;;;30.25;16.88;;;13.40;99.90;;;;;;5088319;28;20028;-60
2021/07/06 00:07:37;;;;;;;27.73;17.88;;;13.40;99.90;;;;;;5067291;28;20437;-59
2021/07/06 00:10:05;;;;;;;27.13;17.88;;;13.30;99.90;;;;;;5086426;28;20108;-59
2021/07/06 00:12:31;;;;;;;23.42;16.17;;;13.40;99.90;;;;;;5068546;28;20020;-60
2021/07/06 00:14:57;;;;;;;26.17;16.90;;;13.40;99.90;;;;;;5086634;28;20440;-60
2021/07/06 00:17:23;;;;;;;23.17;16.77;;;13.40;99.90;;;;;;5086433;28;20421;-61
2021/07/06 00:19:50;;;;;;;27.95;19.65;;;13.30;99.90;;;;;;5087719;28;20036;-60
2021/07/06 00:22:16;;;;;;;35.17;18.58;;;13.30;99.90;;;;;;5086334;28;20028;-60
2021/07/06 00:24:44;;;;;;;29.75;18.25;;;13.30;99.90;;;;;;5085888;28;20440;-61
2021/07/06 00:27:10;;;;;;;27.67;18.15;;;13.20;99.90;;;;;;5087332;28;20489;-60
2021/07/06 00:29:36;;;;;;;31.70;17.83;;;13.20;99.90;;;;;;5086459;28;20253;-60
2021/07/06 00:32:02;;;;;;;28.92;17.33;;;13.30;99.90;;;;;;5086741;28;20034;-60
2021/07/06 00:34:28;;;;;;;24.67;17.13;;;13.30;99.90;;;;;;5086325;28;20070;-60
2021/07/06 00:36:54;;;;;;;25.05;16.58;;;13.30;99.90;;;;;;5065176;28;20620;-60
2021/07/06 00:39:20;;;;;;;25.60;16.25;;;13.20;99.90;;;;;;5085890;28;20475;-60
2021/07/06 00:41:46;;;;;;;28.20;16.95;;;13.20;99.90;;;;;;5088233;28;20031;-58
2021/07/06 00:44:14;;;;;;;26.17;17.23;;;13.20;99.90;;;;;;5085198;28;20031;-59
2021/07/06 00:46:40;;;;;;;32.40;17.45;;;13.20;99.90;;;;;;5085242;28;20154;-59
2021/07/06 00:49:06;;;;;;;27.70;18.52;;;13.20;99.90;;;;;;5086222;28;20032;-59
2021/07/06 00:51:32;;;;;;;24.00;17.63;;;13.10;99.90;;;;;;5086856;28;20038;-59
2021/07/06 00:53:59;;;;;;;31.80;18.42;;;13.20;99.90;;;;;;5086474;28;20035;-60
2021/07/06 00:56:25;;;;;;;32.90;17.48;;;13.20;99.90;;;;;;5085427;28;20109;-59
2021/07/06 00:58:51;;;;;;;29.95;18.52;;;13.20;99.90;;;;;;5086729;28;20035;-60
2021/07/06 01:01:17;;;;;;;25.90;16.63;;;13.10;99.90;;;;;;5085145;28;20027;-59
2021/07/06 01:03:44;;;;;;;28.65;17.30;;;13.20;99.90;;;;;;5084887;28;20032;-59
2021/07/06 01:06:12;;;;;;;28.40;17.20;;;13.20;99.90;;;;;;5084616;28;20193;-59
2021/07/06 01:08:38;;;;;;;28.42;18.58;;;13.20;99.90;;;;;;5085258;28;20040;-59
2021/07/06 01:11:05;;;;;;;29.50;18.30;;;13.20;99.90;;;;;;5087285;28;20379;-59
2021/07/06 01:13:33;;;;;;;29.15;18.25;;;13.30;99.90;;;;;;5084062;28;20064;-59
2021/07/06 01:15:59;;;;;;;27.75;17.80;;;13.30;99.90;;;;;;5085378;28;20035;-59
2021/07/06 01:18:25;;;;;;;32.30;18.38;;;13.40;99.90;;;;;;5087109;28;20469;-59
2021/07/06 01:20:53;;;;;;;33.22;18.77;;;13.40;99.90;;;;;;5086226;28;20031;-59
2021/07/06 01:23:21;;;;;;;31.33;20.00;;;13.30;99.90;;;;;;5085733;28;20038;-59
2021/07/06 01:25:50;;;;;;;28.52;19.88;;;13.30;99.90;;;;;;5083548;28;20055;-59
2021/07/06 01:28:16;;;;;;;34.00;19.77;;;13.30;99.90;;;;;;5086442;28;20076;-59
2021/07/06 01:30:42;;;;;;;31.67;18.90;;;13.30;99.90;;;;;;5085003;28;20032;-59
2021/07/06 01:33:08;;;;;;;27.65;18.67;;;13.30;99.90;;;;;;5082477;28;20031;-59
2021/07/06 01:35:34;;;;;;;24.88;18.90;;;13.30;99.90;;;;;;5083949;28;20054;-59
2021/07/06 01:38:03;;;;;;;30.73;19.88;;;13.20;99.90;;;;;;5066432;28;20038;-60
2021/07/06 01:40:30;;;;;;;28.75;19.30;;;13.20;99.90;;;;;;5063933;28;20480;-59
2021/07/06 01:42:57;;;;;;;27.80;19.42;;;13.20;99.90;;;;;;5083349;28;20089;-60
2021/07/06 01:45:25;;;;;;;30.42;19.80;;;13.20;99.90;;;;;;5067068;28;20059;-60
2021/07/06 01:47:57;;;;;;;33.58;20.27;;;13.30;99.90;;;;;;5083535;28;20871;-59
2021/07/06 01:50:29;;;;;;;32.33;20.38;;;13.20;99.90;;;;;;5085012;28;20028;-59
2021/07/06 01:52:57;;;;;;;30.25;18.98;;;13.30;99.90;;;;;;5084302;28;20563;-59
2021/07/06 01:55:28;;;;;;;30.58;19.33;;;13.30;99.90;;;;;;5085930;28;20561;-59
2021/07/06 01:57:55;;;;;;;32.00;19.50;;;13.30;99.90;;;;;;5064934;28;20097;-59
2021/07/06 02:00:29;;;;;;;36.35;21.17;;;13.40;99.90;;;;;;5082189;28;20589;-59
2021/07/06 02:02:56;;;;;;;32.67;20.40;;;13.40;99.90;;;;;;5084325;28;20750;-59
2021/07/06 02:05:22;;;;;;;28.60;20.65;;;13.40;99.90;;;;;;5085961;28;20231;-59
2021/07/06 02:07:48;;;;;;;31.08;20.30;;;13.50;99.90;;;;;;5084374;28;20266;-59
2021/07/06 02:10:15;;;;;;;30.17;20.60;;;13.60;99.90;;;;;;5065586;28;20028;-59
2021/07/06 02:12:41;;;;;;;34.15;21.05;;;13.50;99.90;;;;;;5085527;28;20028;-59
2021/07/06 02:15:11;;;;;;;33.55;19.38;;;13.50;99.90;;;;;;5084255;28;20473;-59
2021/07/06 02:17:37;;;;;;;29.77;20.73;;;13.60;99.90;;;;;;5082818;28;20028;-59
2021/07/06 02:20:08;;;;;;;40.58;22.60;;;13.60;99.90;;;;;;5085423;28;20036;-60
2021/07/06 02:22:35;;;;;;;32.63;21.60;;;13.60;99.90;;;;;;5083419;28;20059;-59
2021/07/06 02:25:04;;;;;;;29.77;20.02;;;13.70;99.90;;;;;;5082880;28;20051;-60
2021/07/06 02:27:30;;;;;;;35.10;20.58;;;13.70;99.90;;;;;;5084686;28;20032;-59
2021/07/06 02:29:56;;;;;;;35.38;20.05;;;13.70;99.90;;;;;;5082871;28;20315;-59
2021/07/06 02:32:22;;;;;;;29.95;19.33;;;13.80;99.90;;;;;;5064960;28;20443;-60
2021/07/06 02:34:48;;;;;;;29.58;18.25;;;13.80;99.90;;;;;;5082970;28;20046;-60
2021/07/06 02:37:14;;;;;;;33.60;19.60;;;13.80;99.90;;;;;;5083390;28;20072;-59
2021/07/06 02:39:39;;;;;;;25.77;17.75;;;13.90;99.90;;;;;;5085514;28;20035;-59
2021/07/06 02:42:05;;;;;;;33.65;18.40;;;13.90;99.90;;;;;;5088865;28;20032;-59
2021/07/06 02:44:31;;;;;;;34.95;18.58;;;14.00;99.90;;;;;;5087549;28;20036;-60
2021/07/06 02:46:57;;;;;;;24.85;16.83;;;14.00;99.90;;;;;;5087530;28;20290;-59
2021/07/06 02:49:22;;;;;;;26.40;17.02;;;14.00;99.90;;;;;;5087924;28;20360;-59
2021/07/06 02:51:48;;;;;;;26.30;17.67;;;14.00;99.90;;;;;;5088539;28;20130;-60
2021/07/06 02:54:14;;;;;;;23.65;18.40;;;14.10;99.90;;;;;;5086987;28;20032;-59
2021/07/06 02:56:40;;;;;;;30.63;16.67;;;14.00;99.90;;;;;;5088140;28;20114;-59
2021/07/06 02:59:05;;;;;;;25.08;17.08;;;14.10;99.90;;;;;;5069640;28;20033;-60
2021/07/06 03:01:31;;;;;;;25.38;15.95;;;14.10;99.90;;;;;;5088712;28;20039;-60
2021/07/06 03:03:57;;;;;;;31.88;16.85;;;14.10;99.90;;;;;;5086969;28;20534;-59
2021/07/06 03:06:23;;;;;;;29.52;16.83;;;14.10;99.90;;;;;;5088563;28;20040;-59
2021/07/06 03:08:52;;;;;;;26.90;15.65;;;14.10;99.90;;;;;;5087543;28;20073;-59
2021/07/06 03:11:18;;;;;;;28.67;17.50;;;14.00;99.90;;;;;;5087642;28;20031;-60
2021/07/06 03:13:44;;;;;;;30.02;18.38;;;14.10;99.90;;;;;;5088965;28;20339;-59
2021/07/06 03:16:10;;;;;;;24.52;16.05;;;14.00;99.90;;;;;;5089340;28;20040;-60
2021/07/06 03:18:35;;;;;;;23.92;15.55;;;14.00;99.90;;;;;;5087291;28;20027;-59
2021/07/06 03:21:01;;;;;;;22.65;15.18;;;14.10;99.90;;;;;;5090185;28;20028;-60
2021/07/06 03:23:28;;;;;;;23.98;16.45;;;14.10;99.90;;;;;;5083660;28;20024;-59
2021/07/06 03:25:54;;;;;;;27.75;16.55;;;14.00;99.90;;;;;;5086165;28;20083;-59
2021/07/06 03:28:20;;;;;;;20.05;14.25;;;14.00;99.90;;;;;;5087089;28;20035;-59
2021/07/06 03:30:46;;;;;;;23.83;15.32;;;14.00;99.90;;;;;;5086226;28;20039;-59
2021/07/06 03:33:11;;;;;;;21.77;14.85;;;14.10;99.90;;;;;;5089184;28;20105;-59
2021/07/06 03:35:38;;;;;;;23.48;15.27;;;14.00;99.90;;;;;;5083933;28;20895;-59
2021/07/06 03:38:05;;;;;;;21.13;14.60;;;13.90;99.90;;;;;;5086323;28;20028;-59
2021/07/06 03:40:32;;;;;;;21.02;14.15;;;14.00;99.90;;;;;;5082285;28;20597;-60
2021/07/06 03:42:58;;;;;;;23.00;15.07;;;14.00;99.90;;;;;;5085225;28;20449;-59
2021/07/06 03:45:25;;;;;;;22.88;14.77;;;14.00;99.90;;;;;;5087473;28;20384;-59
2021/07/06 03:47:51;;;;;;;21.48;14.70;;;14.00;99.90;;;;;;5086016;28;20036;-59
2021/07/06 03:50:21;;;;;;;21.27;13.63;;;14.00;99.90;;;;;;5084181;28;20028;-59
2021/07/06 03:52:49;;;;;;;23.98;13.82;;;14.20;99.90;;;;;;5063098;28;20487;-59
2021/07/06 03:55:15;;;;;;;22.00;12.88;;;14.20;99.90;;;;;;5080459;28;20051;-60
2021/07/06 03:57:43;;;;;;;20.42;14.25;;;14.10;99.90;;;;;;5086593;28;20514;-71
2021/07/06 04:00:12;;;;;;;23.30;13.32;;;14.10;99.90;;;;;;5083417;28;20103;-66
2021/07/06 04:02:39;;;;;;;20.88;13.70;;;14.10;99.90;;;;;;5088030;28;20780;-66
2021/07/06 04:05:07;;;;;;;18.77;12.00;;;14.10;99.90;;;;;;5088282;28;20074;-66
2021/07/06 04:07:33;;;;;;;19.40;11.23;;;14.20;99.90;;;;;;5085884;28;20024;-66
2021/07/06 04:09:59;;;;;;;18.35;11.63;;;14.20;99.90;;;;;;5082477;28;20027;-66
2021/07/06 04:12:25;;;;;;;19.70;12.20;;;14.20;99.90;;;;;;5083883;28;20035;-66
2021/07/06 04:14:51;;;;;;;18.38;12.13;;;14.30;99.90;;;;;;5085911;28;20032;-67
2021/07/06 04:17:17;;;;;;;21.30;11.10;;;14.40;99.90;;;;;;5085179;28;20116;-66
2021/07/06 04:19:43;;;;;;;18.15;10.52;;;14.50;99.90;;;;;;5089085;28;20039;-66
2021/07/06 04:22:08;;;;;;;16.42;10.40;;;14.50;99.90;;;;;;5084412;28;20592;-67
2021/07/06 04:24:34;;;;;;;15.93;9.88;;;14.50;99.90;;;;;;5085263;28;20240;-66
2021/07/06 04:27:01;;;;;;;19.75;10.18;;;14.60;99.90;;;;;;5085455;28;20484;-67
2021/07/06 04:29:28;;;;;;;18.85;9.90;;;14.60;99.90;;;;;;5085132;28;20295;-66
2021/07/06 04:31:54;;;;;;;12.77;9.02;;;14.70;99.90;;;;;;5084551;28;20035;-66
2021/07/06 04:34:21;;;;;;;14.50;9.43;;;14.70;99.90;;;;;;5068255;28;20850;-67
2021/07/06 04:36:47;;;;;;;18.75;9.68;;;14.70;99.90;;;;;;5087016;28;20366;-66
2021/07/06 04:39:13;;;;;;;14.65;8.70;;;14.70;99.90;;;;;;5083864;28;20082;-67
2021/07/06 04:41:39;;;;;;;15.50;9.95;;;14.80;99.90;;;;;;5086114;28;20035;-66
2021/07/06 04:44:05;;;;;;;17.80;9.05;;;14.80;99.90;;;;;;5086380;28;20024;-67
2021/07/06 04:46:31;;;;;;;15.02;9.82;;;14.80;99.90;;;;;;5087097;28;20384;-67
2021/07/06 04:48:57;;;;;;;12.30;8.38;;;14.80;99.90;;;;;;5067166;28;20599;-66
2021/07/06 04:51:22;;;;;;;15.10;8.90;;;14.90;99.90;;;;;;5083568;28;20028;-66
2021/07/06 04:53:48;;;;;;;18.95;9.38;;;14.90;99.90;;;;;;5086339;28;20034;-66
2021/07/06 04:56:14;;;;;;;15.63;9.50;;;15.00;99.90;;;;;;5063780;28;20093;-67
2021/07/06 04:58:40;;;;;;;17.23;9.02;;;15.00;99.90;;;;;;5078021;28;20023;-65
2021/07/06 05:01:10;;;;;;;15.23;9.35;;;15.10;99.90;;;;;;5078562;28;20070;-66
2021/07/06 05:03:37;;;;;;;15.02;9.95;;;15.20;99.90;;;;;;5087004;28;20028;-66
2021/07/06 05:06:03;;;;;;;16.52;9.75;;;15.20;99.90;;;;;;5086209;28;20620;-66
2021/07/06 05:08:29;;;;;;;16.63;9.82;;;15.30;99.90;;;;;;5084604;28;20020;-66
2021/07/06 05:10:56;;;;;;;16.48;9.38;;;15.30;99.90;;;;;;5086535;28;20031;-66
2021/07/06 05:13:24;;;;;;;18.90;8.93;;;15.30;99.90;;;;;;5086974;28;20028;-65
2021/07/06 05:15:51;;;;;;;9.75;7.80;;;15.40;99.90;;;;;;5085722;28;20738;-66
2021/07/06 05:18:17;;;;;;;15.48;8.82;;;15.50;99.90;;;;;;5088274;28;20032;-66
2021/07/06 05:20:43;;;;;;;15.30;8.52;;;15.60;99.90;;;;;;5087746;28;20458;-66
2021/07/06 05:23:09;;;;;;;17.27;8.27;;;15.60;99.90;;;;;;5087731;28;20547;-66
2021/07/06 05:25:35;;;;;;;11.57;6.82;;;15.60;99.90;;;;;;5063646;28;20117;-67
2021/07/06 05:28:01;;;;;;;10.60;7.10;;;15.70;99.90;;;;;;5068338;28;20032;-66
2021/07/06 05:30:27;;;;;;;11.23;6.57;;;15.70;99.90;;;;;;5066435;28;20036;-66
2021/07/06 05:32:52;;;;;;;13.40;6.72;;;15.80;99.90;;;;;;5067744;28;20353;-65
2021/07/06 05:35:18;;;;;;;15.82;7.63;;;15.90;99.90;;;;;;5082170;28;20402;-66
2021/07/06 05:37:44;;;;;;;14.52;6.55;;;15.90;99.90;;;;;;5068087;28;20128;-66
2021/07/06 05:40:11;;;;;;;11.00;6.45;;;16.00;99.90;;;;;;5065823;28;20032;-66
2021/07/06 05:42:38;;;;;;;11.40;6.00;;;15.90;99.90;;;;;;5066644;28;20032;-66
2021/07/06 05:45:06;;;;;;;12.63;6.25;;;15.90;99.90;;;;;;5067077;28;20033;-66
2021/07/06 05:47:35;;;;;;;10.43;6.35;;;16.00;99.90;;;;;;5066440;28;20035;-66
2021/07/06 05:50:02;;;;;;;13.55;6.40;;;16.10;99.90;;;;;;5064051;28;20497;-66
2021/07/06 05:52:28;;;;;;;8.05;5.97;;;16.20;99.90;;;;;;5066477;28;20523;-66
2021/07/06 05:54:54;;;;;;;13.52;6.35;;;16.20;99.90;;;;;;5067189;28;20078;-66
2021/07/06 05:57:29;;;;;;;13.32;6.25;;;16.20;99.90;;;;;;5065966;28;20093;-65
2021/07/06 06:00:07;;;;;;;16.55;7.18;;;16.30;99.90;;;;;;5065283;28;20086;-66
2021/07/06 06:02:33;;;;;;;15.30;6.55;;;16.30;99.90;;;;;;5066035;28;20031;-67
2021/07/06 06:04:59;;;;;;;13.73;6.75;;;16.30;99.90;;;;;;5064572;28;20031;-66
2021/07/06 06:07:25;;;;;;;9.23;6.15;;;16.30;99.90;;;;;;5065979;28;20020;-66
2021/07/06 06:09:51;;;;;;;10.25;6.50;;;16.40;99.90;;;;;;5066279;28;20437;-67
2021/07/06 06:12:17;;;;;;;13.77;7.00;;;16.50;99.90;;;;;;5066847;28;20025;-66
2021/07/06 06:14:43;;;;;;;15.10;7.00;;;16.60;99.90;;;;;;5068780;28;20036;-66
2021/07/06 06:17:09;;;;;;;8.32;5.90;;;16.60;99.90;;;;;;5069967;28;20395;-66
2021/07/06 06:19:35;;;;;;;8.13;5.85;;;16.70;99.90;;;;;;5070220;28;20051;-67
2021/07/06 06:22:00;;;;;;;10.63;6.50;;;16.80;99.90;;;;;;5069924;28;20143;-66
2021/07/06 06:24:27;;;;;;;12.85;6.78;;;16.90;99.90;;;;;;5069745;28;20173;-68
2021/07/06 06:26:52;;;;;;;12.18;6.07;;;17.00;99.90;;;;;;5069032;28;20047;-67
2021/07/06 06:29:18;;;;;;;10.63;5.78;;;17.00;99.90;;;;;;5071279;28;20390;-67
2021/07/06 06:31:45;;;;;;;10.95;5.80;;;17.00;99.90;;;;;;5071586;28;20127;-66
2021/07/06 06:34:11;;;;;;;13.23;5.70;;;17.00;99.90;;;;;;5070370;28;20555;-67
2021/07/06 06:36:37;;;;;;;9.85;5.30;;;17.00;99.90;;;;;;5070812;28;20522;-67
2021/07/06 06:39:05;;;;;;;13.25;5.90;;;17.10;99.90;;;;;;5070212;28;20123;-68
2021/07/06 06:41:30;;;;;;;7.88;5.45;;;17.10;99.90;;;;;;5070954;28;20043;-68
2021/07/06 06:43:56;;;;;;;10.93;5.82;;;17.20;99.90;;;;;;5070678;28;20464;-67
2021/07/06 06:46:22;;;;;;;13.02;5.65;;;17.20;99.90;;;;;;5071042;28;20448;-67
2021/07/06 06:48:49;;;;;;;9.00;5.13;;;17.30;99.90;;;;;;5069468;28;20021;-67
2021/07/06 06:51:15;;;;;;;6.90;5.00;;;17.30;99.90;;;;;;5070688;28;20115;-68
2021/07/06 06:53:41;;;;;;;9.13;5.70;;;17.40;99.90;;;;;;5069595;28;20193;-67
2021/07/06 06:56:07;;;;;;;10.52;5.53;;;17.50;99.90;;;;;;5069754;28;20044;-67
2021/07/06 06:58:33;;;;;;;7.57;5.15;;;17.50;99.90;;;;;;5071248;28;20837;-68
2021/07/06 07:00:59;;;;;;;9.07;5.13;;;17.50;99.90;;;;;;5071036;28;20032;-67
2021/07/06 07:03:25;;;;;;;10.02;4.82;;;17.50;99.90;;;;;;5069307;28;20478;-67
2021/07/06 07:05:52;;;;;;;10.25;5.10;;;17.50;99.90;;;;;;5070301;28;20117;-68
2021/07/06 07:08:19;;;;;;;8.35;5.13;;;17.50;99.90;;;;;;5069170;28;20039;-67
2021/07/06 07:10:46;;;;;;;8.45;4.85;;;17.50;99.90;;;;;;5071054;28;20445;-67
2021/07/06 07:13:12;;;;;;;11.40;5.50;;;17.60;99.90;;;;;;5070603;28;20035;-66
2021/07/06 07:15:38;;;;;;;9.23;4.93;;;17.60;99.90;;;;;;5070027;28;20036;-67
2021/07/06 07:18:04;;;;;;;9.52;5.55;;;17.70;99.90;;;;;;5070612;28;20083;-67
2021/07/06 07:20:30;;;;;;;8.88;5.25;;;17.80;99.90;;;;;;5067648;28;20020;-68
2021/07/06 07:22:56;;;;;;;6.70;4.97;;;17.90;99.90;;;;;;5069044;28;20546;-67
2021/07/06 07:25:22;;;;;;;7.75;5.00;;;18.10;99.90;;;;;;5074548;28;20070;-66
2021/07/06 07:27:49;;;;;;;5.78;4.50;;;18.20;99.90;;;;;;5089510;28;20410;-67
2021/07/06 07:30:17;;;;;;;8.32;5.18;;;18.20;99.90;;;;;;5090040;28;20449;-67
2021/07/06 07:32:43;;;;;;;14.23;4.95;;;18.30;99.90;;;;;;5090489;28;20386;-67
2021/07/06 07:35:10;;;;;;;7.35;5.70;;;18.20;99.90;;;;;;5090046;28;20036;-68
2021/07/06 07:37:36;;;;;;;7.57;5.43;;;18.20;99.90;;;;;;5088964;28;20074;-67
2021/07/06 07:40:03;;;;;;;9.52;5.20;;;18.20;99.90;;;;;;5088920;28;20565;-67
2021/07/06 07:42:31;;;;;;;7.40;5.05;;;18.20;99.90;;;;;;5088176;28;20401;-67
2021/07/06 07:44:57;;;;;;;11.43;5.72;;;18.20;99.90;;;;;;5089904;28;20024;-68
2021/07/06 07:47:22;;;;;;;9.60;4.70;;;18.20;99.90;;;;;;5090602;28;20490;-67
2021/07/06 07:49:48;;;;;;;7.72;5.05;;;18.20;99.90;;;;;;5090281;28;20061;-68
2021/07/06 07:52:14;;;;;;;8.48;4.95;;;18.20;99.90;;;;;;5089643;28;20138;-68
2021/07/06 07:54:40;;;;;;;6.90;5.30;;;18.50;99.90;;;;;;5089164;28;20700;-68
2021/07/06 07:57:09;;;;;;;9.27;5.82;;;18.80;99.90;;;;;;5088323;28;20103;-68
2021/07/06 07:59:35;;;;;;;;;;;18.80;99.90;;;;;;5090049;28;20035;-68
2021/07/06 08:02:02;;;;;;;8.55;4.97;;;18.80;99.90;;;;;;5090437;28;20596;-67
2021/07/06 08:04:28;;;;;;;7.25;4.80;;;18.90;99.90;;;;;;5089252;28;20647;-68
2021/07/06 08:06:54;;;;;;;8.27;5.07;;;19.00;99.90;;;;;;5088086;28;20126;-68
2021/07/06 08:09:20;;;;;;;12.77;4.82;;;19.10;99.90;;;;;;5071254;28;20035;-67
2021/07/06 08:11:45;;;;;;;7.70;4.50;;;19.30;99.90;;;;;;5089031;28;20507;-68
2021/07/06 08:14:11;;;;;;;7.53;4.57;;;19.20;99.90;;;;;;5088187;28;20371;-68
2021/07/06 08:16:37;;;;;;;7.15;4.32;;;19.20;99.90;;;;;;5089056;28;20032;-68
2021/07/06 08:19:03;;;;;;;8.27;4.28;;;19.30;99.90;;;;;;5089269;28;20020;-68
2021/07/06 08:21:29;;;;;;;7.93;4.20;;;19.40;99.90;;;;;;5089733;28;20067;-68
2021/07/06 08:23:59;;;;;;;5.78;4.03;;;19.80;99.90;;;;;;5088410;28;20036;-67
2021/07/06 08:26:26;;;;;;;4.75;4.22;;;20.10;99.90;;;;;;5088272;28;20051;-67
2021/07/06 08:28:53;;;;;;;6.53;3.90;;;20.30;99.90;;;;;;5088980;28;20082;-67
2021/07/06 08:31:18;;;;;;;5.85;3.70;;;20.30;99.90;;;;;;5088599;28;20382;-68
2021/07/06 08:33:45;;;;;;;8.35;4.00;;;20.20;99.90;;;;;;5086565;28;20035;-69
2021/07/06 08:36:10;;;;;;;6.80;4.47;;;20.20;99.90;;;;;;5086965;28;20036;-69
2021/07/06 08:38:40;;;;;;;6.43;4.28;;;20.00;99.90;;;;;;5088341;28;20023;-68
2021/07/06 08:41:07;;;;;;;8.65;3.80;;;20.10;99.90;;;;;;5089511;28;20086;-68
2021/07/06 08:43:33;;;;;;;6.15;4.38;;;20.20;99.90;;;;;;5088787;28;20418;-68
2021/07/06 08:46:01;;;;;;;9.15;4.03;;;20.60;99.90;;;;;;5088503;28;20115;-67
2021/07/06 08:48:35;;;;;;;6.30;4.45;;;20.80;99.90;;;;;;5088213;28;20020;-68
2021/07/06 08:51:04;;;;;;;5.82;4.63;;;20.90;99.90;;;;;;5069631;28;20085;-68
2021/07/06 08:53:30;;;;;;;7.53;4.22;;;20.90;99.90;;;;;;5087518;28;20058;-68
2021/07/06 08:55:58;;;;;;;7.10;3.85;;;21.10;99.90;;;;;;5088576;28;20244;-68
2021/07/06 08:58:25;;;;;;;4.22;3.63;;;21.50;99.90;;;;;;5087932;28;20641;-68
2021/07/06 09:00:51;;;;;;;6.68;4.05;;;21.70;99.90;;;;;;5087503;28;20028;-69
2021/07/06 09:03:17;;;;;;;4.75;3.90;;;21.80;99.90;;;;;;5087767;28;20436;-69
2021/07/06 09:05:43;;;;;;;5.32;3.97;;;22.00;99.90;;;;;;5087550;28;20570;-69
2021/07/06 09:08:16;;;;;;;5.70;4.03;;;22.10;99.90;;;;;;5087642;28;20077;-69
2021/07/06 09:10:43;;;;;;;7.47;4.57;;;22.10;99.90;;;;;;5087653;28;20027;-68
2021/07/06 09:13:25;;;;;;;4.90;3.67;;;22.00;99.90;;;;;;5069005;28;20037;-68
2021/07/06 09:15:55;;;;;;;6.68;4.25;;;21.60;99.90;;;;;;5089046;28;20035;-69
2021/07/06 09:18:22;;;;;;;6.95;4.75;;;21.50;99.90;;;;;;5087079;28;20034;-69
2021/07/06 09:21:21;;;;;;;7.18;5.18;;;21.30;99.90;;;;;;5088313;28;20036;-69
2021/07/06 09:23:49;;;;;;;;;;;21.50;99.90;;;;;;5033036;28;20062;-68
2021/07/06 09:26:30;;;;;;;6.28;3.80;;;21.80;99.90;;;;;;5087678;28;20547;-68
2021/07/06 09:28:58;;;;;;;6.57;4.13;;;21.80;99.90;;;;;;5087447;28;20028;-68
2021/07/06 09:31:34;;;;;;;5.32;4.32;;;22.00;99.90;;;;;;5086373;28;22329;-68
2021/07/06 09:34:04;;;;;;;7.53;4.03;;;22.10;99.90;;;;;;5087464;28;20123;-68
2021/07/06 09:36:31;;;;;;;7.20;4.13;;;22.10;99.90;;;;;;5087372;28;20032;-69
2021/07/06 09:39:18;;;;;;;5.93;3.60;;;22.30;99.90;;;;;;5068896;28;20084;-69
2021/07/06 09:42:08;;;;;;;5.28;3.35;;;22.30;99.90;;;;;;5085789;28;20035;-69
2021/07/06 09:44:36;;;;;;;9.23;4.13;;;22.40;99.90;;;;;;5087149;28;20085;-68
2021/07/06 09:47:04;;;;;;;4.93;3.77;;;22.40;99.90;;;;;;5087021;28;20486;-69
2021/07/06 09:49:32;;;;;;;5.47;3.63;;;22.20;99.90;;;;;;5088368;28;20443;-70
2021/07/06 09:52:17;;;;;;;5.85;3.95;;;22.20;99.90;;;;;;5087943;28;20035;-68
2021/07/06 09:54:47;;;;;;;6.25;3.30;;;22.00;99.90;;;;;;5087484;28;20076;-69
2021/07/06 09:57:14;;;;;;;5.72;3.85;;;22.00;99.90;;;;;;5087108;28;20052;-68
2021/07/06 09:59:59;;;;;;;9.45;3.60;;;21.90;99.90;;;;;;5088053;28;20643;-69
2021/07/06 10:02:27;;;;;;;4.68;3.47;;;21.90;99.90;;;;;;5084902;28;20046;-69
2021/07/06 10:04:54;;;;;;;5.93;3.53;;;21.90;99.90;;;;;;5086524;28;20020;-69
2021/07/06 10:07:22;;;;;;;4.90;3.47;;;21.80;99.90;;;;;;5085962;28;20028;-69
2021/07/06 10:09:49;;;;;;;5.30;3.47;;;21.70;99.90;;;;;;5085732;28;20085;-68
2021/07/06 10:12:19;;;;;;;4.65;3.30;;;21.60;99.90;;;;;;5086916;28;20024;-68
2021/07/06 10:14:46;;;;;;;4.15;3.58;;;21.60;99.90;;;;;;5086509;28;20503;-69
2021/07/06 10:17:13;;;;;;;8.50;3.65;;;21.60;99.90;;;;;;5067253;28;20067;-69
2021/07/06 10:19:41;;;;;;;4.22;2.92;;;21.60;99.90;;;;;;5085974;28;20575;-69
2021/07/06 10:22:08;;;;;;;3.90;3.17;;;21.70;99.90;;;;;;5086097;28;20054;-69
2021/07/06 10:24:46;;;;;;;8.13;3.38;;;21.70;99.90;;;;;;5086827;28;20593;-68
2021/07/06 10:27:20;;;;;;;5.32;3.30;;;21.70;99.90;;;;;;5046620;28;20041;-69
2021/07/06 10:29:46;;;;;;;5.40;3.15;;;21.80;99.90;;;;;;5045237;28;20020;-69
2021/07/06 10:32:38;;;;;;;5.07;3.50;;;21.70;99.90;;;;;;5047402;28;20435;-69
2021/07/06 10:35:10;;;;;;;4.18;3.20;;;21.80;99.90;;;;;;5046442;28;20572;-68
2021/07/06 10:37:37;;;;;;;8.43;3.60;;;21.80;99.90;;;;;;5045881;28;20555;-69
2021/07/06 10:40:19;;;;;;;4.47;3.50;;;21.70;99.90;;;;;;5047851;28;20035;-69
2021/07/06 10:42:49;;;;;;;6.50;4.03;;;21.60;99.90;;;;;;5046365;28;20095;-69
2021/07/06 10:45:34;;;;;;;10.02;4.38;;;21.40;99.90;;;;;;5045841;28;20021;-69
2021/07/06 10:48:00;;;;;;;8.07;4.07;;;21.30;99.90;;;;;;5046352;28;20033;-69
2021/07/06 10:50:32;;;;;;;9.25;4.70;;;21.20;99.90;;;;;;5047017;28;20029;-68
2021/07/06 10:53:19;;;;;;;6.93;5.07;;;21.00;99.90;;;;;;5045938;28;20396;-68
2021/07/06 10:55:58;;;;;;;7.38;5.20;;;20.80;99.90;;;;;;5046737;28;20028;-69
2021/07/06 10:58:46;;;;;;;10.88;6.18;;;20.70;99.90;;;;;;5045258;28;20112;-69
2021/07/06 11:01:38;;;;;;;7.75;4.78;;;20.50;99.90;;;;;;5047135;28;20123;-69
2021/07/06 11:04:08;;;;;;;6.03;4.95;;;20.40;99.90;;;;;;5050178;28;20013;-68
2021/07/06 11:06:43;;;;;;;7.10;5.05;;;20.40;99.90;;;;;;5050686;28;20033;-69
2021/07/06 11:09:10;;;;;;;6.85;5.18;;;20.30;99.90;;;;;;5065707;28;20123;-70
2021/07/06 11:11:36;;;;;;;7.25;5.45;;;20.30;99.90;;;;;;5049931;28;20023;-70
2021/07/06 11:14:45;;;;;;;8.30;5.50;;;20.20;99.90;;;;;;5049885;28;20326;-70
2021/07/06 11:17:11;;;;;;;6.88;5.95;;;20.20;99.90;;;;;;5040285;28;20143;-69
2021/07/06 11:19:39;;;;;;;6.65;5.53;;;20.00;99.90;;;;;;5049325;28;20033;-69
2021/07/06 11:22:10;;;;;;;7.35;5.75;;;20.00;99.90;;;;;;5050064;28;20060;-69
2021/07/06 11:24:40;;;;;;;12.07;6.00;;;19.90;99.90;;;;;;5049073;28;20573;-70
2021/07/06 11:27:07;;;;;;;7.75;5.72;;;19.80;99.90;;;;;;5069944;28;20074;-69
2021/07/06 11:29:38;;;;;;;6.80;5.50;;;19.70;99.90;;;;;;5067683;28;20109;-69
2021/07/06 11:32:15;;;;;;;6.35;5.45;;;19.70;99.90;;;;;;5069837;28;20115;-69
2021/07/06 11:34:43;;;;;;;8.93;5.68;;;19.60;99.90;;;;;;5069997;28;20055;-70
2021/07/06 11:37:15;;;;;;;7.20;6.50;;;19.60;99.90;;;;;;5067826;28;20151;-69
2021/07/06 11:39:41;;;;;;;6.93;6.03;;;19.60;99.90;;;;;;5068854;28;20106;-69
2021/07/06 11:42:08;;;;;;;9.27;7.38;;;19.50;99.90;;;;;;5069075;28;20043;-69
2021/07/06 11:44:34;;;;;;;9.93;7.38;;;19.50;99.90;;;;;;5065937;28;20098;-68
2021/07/06 11:47:07;;;;;;;8.35;6.72;;;19.50;99.90;;;;;;5068610;28;20028;-68
2021/07/06 11:49:33;;;;;;;12.60;6.90;;;19.50;99.90;;;;;;5069665;28;20313;-68
2021/07/06 11:52:00;;;;;;;8.30;5.95;;;19.50;99.90;;;;;;5070300;28;20417;-68
2021/07/06 11:54:26;;;;;;;11.57;7.40;;;19.60;99.90;;;;;;5067227;28;20616;-69
2021/07/06 11:57:08;;;;;;;9.40;6.90;;;19.60;99.90;;;;;;5069816;28;20032;-69
2021/07/06 11:59:36;;;;;;;10.10;6.63;;;19.60;99.90;;;;;;5068226;28;20036;-68
2021/07/06 12:02:11;;;;;;;11.65;6.80;;;19.60;99.90;;;;;;5067202;28;20036;-68
2021/07/06 12:04:38;;;;;;;7.50;5.63;;;19.70;99.90;;;;;;5069525;28;20144;-69
2021/07/06 12:07:14;;;;;;;7.63;5.63;;;19.70;99.90;;;;;;5069552;28;20024;-69
2021/07/06 12:09:40;;;;;;;8.95;5.90;;;19.90;99.90;;;;;;5069546;28;20055;-69
2021/07/06 12:12:17;;;;;;;13.48;5.88;;;20.00;99.90;;;;;;5068168;28;20735;-69
2021/07/06 12:14:48;;;;;;;9.10;5.47;;;20.10;99.90;;;;;;5069541;28;20043;-69
2021/07/06 12:17:24;;;;;;;10.32;6.20;;;20.10;99.90;;;;;;5068877;28;20459;-69
2021/07/06 12:19:50;;;;;;;10.23;5.55;;;20.20;99.90;;;;;;5068366;28;20036;-69
2021/07/06 12:22:20;;;;;;;7.70;5.50;;;20.30;99.90;;;;;;5069658;28;20074;-69
2021/07/06 12:24:47;;;;;;;6.75;5.57;;;20.40;99.90;;;;;;5069391;28;20024;-67
2021/07/06 12:27:17;;;;;;;7.68;5.32;;;20.60;99.90;;;;;;5087201;28;20093;-69
2021/07/06 12:29:44;;;;;;;6.75;6.03;;;20.90;99.90;;;;;;5088307;28;20522;-69
2021/07/06 12:32:13;;;;;;;6.68;5.68;;;21.20;99.90;;;;;;5088982;28;20128;-67
2021/07/06 12:34:54;;;;;;;8.27;5.88;;;21.40;99.90;;;;;;5089276;28;20151;-67
2021/07/06 12:37:21;;;;;;;7.78;6.28;;;21.60;99.90;;;;;;5089485;28;20028;-69
2021/07/06 12:39:55;;;;;;;13.10;5.70;;;21.80;99.90;;;;;;5070673;28;20372;-70
2021/07/06 12:42:25;;;;;;;8.98;5.93;;;21.90;99.90;;;;;;5088306;28;20043;-69